Inverness, United Kingdom

12:20 PM BST on October 23, 2014 (GMT +0100)
Ardersier | Change Station
CLOSE
Current Station
Personal Weather Station
Location: Ardersier, SCOTLAND
Elevation: 20 ft
Nearby Weather Stations

Elev 20 ft 57.57 °N, 4.04 °W | Updated 3 seconds ago

Scattered Clouds
Scattered Clouds
57.6 °F
Feels Like 57.6 °F
N
3.5
Wind Variable Wind from NW
Gusts 3.5 mph

Today
High -- | Low -- °F
--% Chance of Precip.
Yesterday
High -- | Low -- °F
Precip. -- in
8:07 AM 5:52 PM
Waning Crescent, 0% visible
Pressure 29.65 in
Visibility 6.2 miles
Clouds Few 1400 ft
Scattered Clouds 4100 ft
Dew Point 53 °F
Humidity 85%
Rainfall 0.00 in
Snow Depth Not available.
UV 1 out of 12
Pollen Not available.
Air Quality Not available.
Flu Activity Not available.
METAR EGPE 231050Z 23009KT 9999 FEW014 SCT041 15/12 Q1004

More Conditions Fewer Conditions

Pressure 29.65 in
Visibility 6.2 miles
Clouds Few 1400 ft
Scattered Clouds 4100 ft
Dew Point 53 °F
Humidity 85%
Rainfall 0.00 in
Snow Depth Not available.
UV 1 out of 12
Pollen Not available.
Air Quality Not available.
Flu Activity Not available.
METAR EGPE 231050Z 23009KT 9999 FEW014 SCT041 15/12 Q1004

More Conditions Fewer Conditions

10-Day Weather Forecast

Almanac

Astronomy

Oct. 23, 2014 Rise Set
Actual Time 8:07 AM BST 5:52 PM BST
Civil Twilight 7:27 AM BST 6:32 PM BST
Nautical Twilight 6:42 AM BST 7:17 PM BST
Astronomical Twilight 5:57 AM BST 8:02 PM BST
Moon 7:27 AM BST 5:47 PM BST
Length of Visible Light 11h 04m
Length of Day
9h 44m
Tomorrow will be 4m 45s shorter.
Waning Crescent, 0% of the Moon is Illuminated
Today
Waning Crescent
Oct 23
New
Oct 30
First Quarter
Nov 6
Full
Nov 14
Last Quarter

Yesterday's Extremes

Country Highs Country Lows

Community

WunderPhotos

Upload Photos

1,764,206 photos uploaded!

Nearby

Snow Depth

Not available.

Earthquake Activity

City Distance Mag. Time & Date
No recent earthquake activity has been reported nearby.
Minimum magnitude displayed is 2.5.

Coastal Water Temperatures

Place Temperature
No Stations Reporting

Nearby Weather Stations